Porto de Moz, Brazil
Current Conditions -  °F | °C
As of 8:00 AM on Wednesday 26 Nov 2014 (Local Time) from SBHT Reporting Station
Scattered Clouds Scattered Clouds  
Wind Chill: 79°   Ceiling: Unl
Heat Index: 83°   Visibility: 6mi
Dew Point: 77°   Wind: 6mph
Humidity: 94%   Direction: 90°E
Pressure: 29.85"   Gusts: NA
Location:  1.74°S, 52.24°W
Report Text: SBHT 261100Z 09005KT 9999 SCT012 26/25 Q1011
Loading
Personal Weather Stations






























Interactive Weather Map New forecast layout! Learn more

10-Day Weather Forecast

Advertisements
Track Severe Weather on mobile